sensor_id;sensor_type;location;lat;lon;timestamp;temperature;humidity
44047;DHT22;29713;-33.888;151.150;2023-03-01T00:00:23;27.60;99.90
44047;DHT22;29713;-33.888;151.150;2023-03-01T00:02:50;27.80;99.90
44047;DHT22;29713;-33.888;151.150;2023-03-01T00:05:17;27.90;99.90
44047;DHT22;29713;-33.888;151.150;2023-03-01T00:07:45;28.10;99.90
44047;DHT22;29713;-33.888;151.150;2023-03-01T00:10:15;28.20;99.90
44047;DHT22;29713;-33.888;151.150;2023-03-01T00:12:42;28.40;99.90
44047;DHT22;29713;-33.888;151.150;2023-03-01T00:15:10;28.60;99.90
44047;DHT22;29713;-33.888;151.150;2023-03-01T00:17:38;28.80;99.90
44047;DHT22;29713;-33.888;151.150;2023-03-01T00:20:06;29.00;99.90
44047;DHT22;29713;-33.888;151.150;2023-03-01T00:22:37;29.00;99.90
44047;DHT22;29713;-33.888;151.150;2023-03-01T00:25:04;29.10;99.90
44047;DHT22;29713;-33.888;151.150;2023-03-01T00:27:32;29.20;99.90
44047;DHT22;29713;-33.888;151.150;2023-03-01T00:29:59;29.30;99.90
44047;DHT22;29713;-33.888;151.150;2023-03-01T00:32:29;29.40;99.90
44047;DHT22;29713;-33.888;151.150;2023-03-01T00:34:58;29.50;99.90
44047;DHT22;29713;-33.888;151.150;2023-03-01T00:37:27;29.50;99.90
44047;DHT22;29713;-33.888;151.150;2023-03-01T00:39:57;29.60;99.90
44047;DHT22;29713;-33.888;151.150;2023-03-01T00:42:25;29.80;99.90
44047;DHT22;29713;-33.888;151.150;2023-03-01T00:44:52;29.90;99.90
44047;DHT22;29713;-33.888;151.150;2023-03-01T00:47:19;30.10;99.90
44047;DHT22;29713;-33.888;151.150;2023-03-01T00:49:47;30.30;99.90
44047;DHT22;29713;-33.888;151.150;2023-03-01T00:52:15;30.50;99.90
44047;DHT22;29713;-33.888;151.150;2023-03-01T00:54:43;30.50;99.90
44047;DHT22;29713;-33.888;151.150;2023-03-01T00:57:10;30.10;99.90
44047;DHT22;29713;-33.888;151.150;2023-03-01T00:59:43;30.00;99.90
44047;DHT22;29713;-33.888;151.150;2023-03-01T01:02:11;30.10;99.90
44047;DHT22;29713;-33.888;151.150;2023-03-01T01:04:38;30.10;99.90
44047;DHT22;29713;-33.888;151.150;2023-03-01T01:07:05;30.30;99.90
44047;DHT22;29713;-33.888;151.150;2023-03-01T01:09:33;30.50;99.90
44047;DHT22;29713;-33.888;151.150;2023-03-01T01:12:00;30.50;99.90
44047;DHT22;29713;-33.888;151.150;2023-03-01T01:14:28;30.60;99.90
44047;DHT22;29713;-33.888;151.150;2023-03-01T01:16:56;30.70;99.90
44047;DHT22;29713;-33.888;151.150;2023-03-01T01:19:25;30.70;99.90
44047;DHT22;29713;-33.888;151.150;2023-03-01T01:21:53;30.60;99.90
44047;DHT22;29713;-33.888;151.150;2023-03-01T01:24:20;30.60;99.90
44047;DHT22;29713;-33.888;151.150;2023-03-01T01:26:48;30.70;99.90
44047;DHT22;29713;-33.888;151.150;2023-03-01T01:29:15;30.60;99.90
44047;DHT22;29713;-33.888;151.150;2023-03-01T01:31:43;30.70;99.90
44047;DHT22;29713;-33.888;151.150;2023-03-01T01:34:18;30.50;99.90
44047;DHT22;29713;-33.888;151.150;2023-03-01T01:36:53;30.60;99.90
44047;DHT22;29713;-33.888;151.150;2023-03-01T01:39:21;30.60;99.90
44047;DHT22;29713;-33.888;151.150;2023-03-01T01:41:49;30.50;99.90
44047;DHT22;29713;-33.888;151.150;2023-03-01T01:44:18;30.40;99.90
44047;DHT22;29713;-33.888;151.150;2023-03-01T01:46:50;30.40;99.90
44047;DHT22;29713;-33.888;151.150;2023-03-01T01:52:18;30.60;99.90
44047;DHT22;29713;-33.888;151.150;2023-03-01T01:57:29;30.90;99.90
44047;DHT22;29713;-33.888;151.150;2023-03-01T02:00:04;31.20;99.90
44047;DHT22;29713;-33.888;151.150;2023-03-01T02:02:31;31.50;99.90
44047;DHT22;29713;-33.888;151.150;2023-03-01T02:05:22;31.90;99.90
44047;DHT22;29713;-33.888;151.150;2023-03-01T02:07:51;32.00;99.90
44047;DHT22;29713;-33.888;151.150;2023-03-01T02:10:20;32.10;99.90
44047;DHT22;29713;-33.888;151.150;2023-03-01T02:12:49;32.40;99.90
44047;DHT22;29713;-33.888;151.150;2023-03-01T02:15:16;32.70;99.90
44047;DHT22;29713;-33.888;151.150;2023-03-01T02:17:44;33.10;99.90
44047;DHT22;29713;-33.888;151.150;2023-03-01T02:23:06;33.30;99.90
44047;DHT22;29713;-33.888;151.150;2023-03-01T02:30:47;34.00;99.90
44047;DHT22;29713;-33.888;151.150;2023-03-01T02:33:34;34.20;99.90
44047;DHT22;29713;-33.888;151.150;2023-03-01T02:36:09;34.00;99.90
44047;DHT22;29713;-33.888;151.150;2023-03-01T02:38:41;34.00;99.90
44047;DHT22;29713;-33.888;151.150;2023-03-01T02:41:09;34.00;99.90
44047;DHT22;29713;-33.888;151.150;2023-03-01T02:43:38;33.80;99.90
44047;DHT22;29713;-33.888;151.150;2023-03-01T02:46:19;33.50;99.90
44047;DHT22;29713;-33.888;151.150;2023-03-01T02:48:49;33.40;99.90
44047;DHT22;29713;-33.888;151.150;2023-03-01T02:56:43;34.20;99.90
44047;DHT22;29713;-33.888;151.150;2023-03-01T02:59:16;34.70;99.90
44047;DHT22;29713;-33.888;151.150;2023-03-01T03:02:28;35.00;99.90
44047;DHT22;29713;-33.888;151.150;2023-03-01T03:05:07;35.60;99.90
44047;DHT22;29713;-33.888;151.150;2023-03-01T03:07:37;35.70;99.90
44047;DHT22;29713;-33.888;151.150;2023-03-01T03:10:07;36.00;99.90
44047;DHT22;29713;-33.888;151.150;2023-03-01T03:12:38;35.80;99.90
44047;DHT22;29713;-33.888;151.150;2023-03-01T03:15:07;35.80;99.90
44047;DHT22;29713;-33.888;151.150;2023-03-01T03:17:40;35.70;99.90
44047;DHT22;29713;-33.888;151.150;2023-03-01T03:20:10;35.70;99.90
44047;DHT22;29713;-33.888;151.150;2023-03-01T03:22:41;35.80;99.90
44047;DHT22;29713;-33.888;151.150;2023-03-01T03:25:09;34.90;99.90
44047;DHT22;29713;-33.888;151.150;2023-03-01T03:27:37;34.40;99.90
44047;DHT22;29713;-33.888;151.150;2023-03-01T03:30:07;33.60;99.90
44047;DHT22;29713;-33.888;151.150;2023-03-01T03:32:39;33.30;99.90
44047;DHT22;29713;-33.888;151.150;2023-03-01T03:35:09;33.00;99.90
44047;DHT22;29713;-33.888;151.150;2023-03-01T03:37:40;32.80;99.90
44047;DHT22;29713;-33.888;151.150;2023-03-01T03:40:26;32.60;99.90
44047;DHT22;29713;-33.888;151.150;2023-03-01T03:42:54;32.70;99.90
44047;DHT22;29713;-33.888;151.150;2023-03-01T03:45:22;33.00;99.90
44047;DHT22;29713;-33.888;151.150;2023-03-01T03:47:49;33.20;99.90
44047;DHT22;29713;-33.888;151.150;2023-03-01T03:50:18;33.50;99.90
44047;DHT22;29713;-33.888;151.150;2023-03-01T03:52:45;33.60;99.90
44047;DHT22;29713;-33.888;151.150;2023-03-01T03:55:13;33.30;99.90
44047;DHT22;29713;-33.888;151.150;2023-03-01T03:57:43;33.50;99.90
44047;DHT22;29713;-33.888;151.150;2023-03-01T04:00:12;33.80;99.90
44047;DHT22;29713;-33.888;151.150;2023-03-01T04:02:40;34.00;99.90
44047;DHT22;29713;-33.888;151.150;2023-03-01T04:05:09;33.70;99.90
44047;DHT22;29713;-33.888;151.150;2023-03-01T04:07:38;33.50;99.90
44047;DHT22;29713;-33.888;151.150;2023-03-01T04:10:11;33.30;99.90
44047;DHT22;29713;-33.888;151.150;2023-03-01T04:12:39;33.40;99.90
44047;DHT22;29713;-33.888;151.150;2023-03-01T04:15:08;33.60;99.90
44047;DHT22;29713;-33.888;151.150;2023-03-01T04:17:47;33.60;99.90
44047;DHT22;29713;-33.888;151.150;2023-03-01T04:20:18;33.60;99.90
44047;DHT22;29713;-33.888;151.150;2023-03-01T04:23:05;33.70;99.90
44047;DHT22;29713;-33.888;151.150;2023-03-01T04:25:49;33.70;99.90
44047;DHT22;29713;-33.888;151.150;2023-03-01T04:30:48;33.40;99.90
44047;DHT22;29713;-33.888;151.150;2023-03-01T04:33:15;33.30;99.90
44047;DHT22;29713;-33.888;151.150;2023-03-01T04:35:44;33.40;99.90
44047;DHT22;29713;-33.888;151.150;2023-03-01T04:38:13;33.30;99.90
44047;DHT22;29713;-33.888;151.150;2023-03-01T04:40:42;33.20;99.90
44047;DHT22;29713;-33.888;151.150;2023-03-01T04:43:10;32.90;99.90
44047;DHT22;29713;-33.888;151.150;2023-03-01T04:45:38;32.70;99.90
44047;DHT22;29713;-33.888;151.150;2023-03-01T04:48:05;32.70;99.90
44047;DHT22;29713;-33.888;151.150;2023-03-01T04:50:33;32.50;99.90
44047;DHT22;29713;-33.888;151.150;2023-03-01T04:53:00;32.60;99.90
44047;DHT22;29713;-33.888;151.150;2023-03-01T04:55:28;32.70;99.90
44047;DHT22;29713;-33.888;151.150;2023-03-01T04:57:56;32.80;99.90
44047;DHT22;29713;-33.888;151.150;2023-03-01T05:00:23;32.80;99.90
44047;DHT22;29713;-33.888;151.150;2023-03-01T05:02:56;33.10;99.90
44047;DHT22;29713;-33.888;151.150;2023-03-01T05:05:32;33.20;99.90
44047;DHT22;29713;-33.888;151.150;2023-03-01T05:08:01;32.90;99.90
44047;DHT22;29713;-33.888;151.150;2023-03-01T05:10:34;32.60;99.90
44047;DHT22;29713;-33.888;151.150;2023-03-01T05:13:02;32.20;99.90
44047;DHT22;29713;-33.888;151.150;2023-03-01T05:15:31;32.00;99.90
44047;DHT22;29713;-33.888;151.150;2023-03-01T05:17:59;32.10;99.90
44047;DHT22;29713;-33.888;151.150;2023-03-01T05:20:29;32.00;99.90
44047;DHT22;29713;-33.888;151.150;2023-03-01T05:23:00;32.10;99.90
44047;DHT22;29713;-33.888;151.150;2023-03-01T05:25:33;32.00;99.90
44047;DHT22;29713;-33.888;151.150;2023-03-01T05:28:05;31.90;99.90
44047;DHT22;29713;-33.888;151.150;2023-03-01T05:30:33;32.00;99.90
44047;DHT22;29713;-33.888;151.150;2023-03-01T05:33:01;31.90;99.90
44047;DHT22;29713;-33.888;151.150;2023-03-01T05:35:29;31.80;99.90
44047;DHT22;29713;-33.888;151.150;2023-03-01T05:37:59;31.90;99.90
44047;DHT22;29713;-33.888;151.150;2023-03-01T05:40:26;31.70;99.90
44047;DHT22;29713;-33.888;151.150;2023-03-01T05:42:55;31.70;99.90
44047;DHT22;29713;-33.888;151.150;2023-03-01T05:45:24;31.80;99.90
44047;DHT22;29713;-33.888;151.150;2023-03-01T05:47:52;31.50;99.90
44047;DHT22;29713;-33.888;151.150;2023-03-01T05:50:23;31.30;99.90
44047;DHT22;29713;-33.888;151.150;2023-03-01T05:52:57;31.00;99.90
44047;DHT22;29713;-33.888;151.150;2023-03-01T05:55:24;31.00;99.90
44047;DHT22;29713;-33.888;151.150;2023-03-01T05:57:57;31.00;99.90
44047;DHT22;29713;-33.888;151.150;2023-03-01T06:00:25;31.10;99.90
44047;DHT22;29713;-33.888;151.150;2023-03-01T06:02:54;30.90;99.90
44047;DHT22;29713;-33.888;151.150;2023-03-01T06:05:22;31.10;99.90
44047;DHT22;29713;-33.888;151.150;2023-03-01T06:07:50;31.20;99.90
44047;DHT22;29713;-33.888;151.150;2023-03-01T06:10:21;31.00;99.90
44047;DHT22;29713;-33.888;151.150;2023-03-01T06:12:49;30.80;99.90
44047;DHT22;29713;-33.888;151.150;2023-03-01T06:15:16;30.60;99.90
44047;DHT22;29713;-33.888;151.150;2023-03-01T06:17:45;30.50;99.90
44047;DHT22;29713;-33.888;151.150;2023-03-01T06:20:18;30.50;99.90
44047;DHT22;29713;-33.888;151.150;2023-03-01T06:22:47;30.50;99.90
44047;DHT22;29713;-33.888;151.150;2023-03-01T06:25:18;30.50;99.90
44047;DHT22;29713;-33.888;151.150;2023-03-01T06:27:46;30.40;99.90
44047;DHT22;29713;-33.888;151.150;2023-03-01T06:30:17;30.50;99.90
44047;DHT22;29713;-33.888;151.150;2023-03-01T06:32:45;30.40;99.90
44047;DHT22;29713;-33.888;151.150;2023-03-01T06:35:14;30.40;99.90
44047;DHT22;29713;-33.888;151.150;2023-03-01T06:37:44;30.10;99.90
44047;DHT22;29713;-33.888;151.150;2023-03-01T06:40:12;30.20;99.90
44047;DHT22;29713;-33.888;151.150;2023-03-01T06:42:43;30.40;99.90
44047;DHT22;29713;-33.888;151.150;2023-03-01T06:45:11;30.40;99.90
44047;DHT22;29713;-33.888;151.150;2023-03-01T06:47:39;30.20;99.90
44047;DHT22;29713;-33.888;151.150;2023-03-01T06:50:06;30.00;99.90
44047;DHT22;29713;-33.888;151.150;2023-03-01T06:52:36;29.90;99.90
44047;DHT22;29713;-33.888;151.150;2023-03-01T06:55:05;29.60;99.90
44047;DHT22;29713;-33.888;151.150;2023-03-01T06:57:33;29.20;99.90
44047;DHT22;29713;-33.888;151.150;2023-03-01T07:00:00;28.80;99.90
44047;DHT22;29713;-33.888;151.150;2023-03-01T07:02:27;28.70;99.90
44047;DHT22;29713;-33.888;151.150;2023-03-01T07:04:55;28.70;99.90
44047;DHT22;29713;-33.888;151.150;2023-03-01T07:07:22;28.60;99.90
44047;DHT22;29713;-33.888;151.150;2023-03-01T07:09:50;28.40;99.90
44047;DHT22;29713;-33.888;151.150;2023-03-01T07:12:17;28.10;99.90
44047;DHT22;29713;-33.888;151.150;2023-03-01T07:14:45;27.90;99.90
44047;DHT22;29713;-33.888;151.150;2023-03-01T07:17:12;27.90;99.90
44047;DHT22;29713;-33.888;151.150;2023-03-01T07:19:41;27.80;99.90
44047;DHT22;29713;-33.888;151.150;2023-03-01T07:22:08;27.60;99.90
44047;DHT22;29713;-33.888;151.150;2023-03-01T07:24:36;27.40;99.90
44047;DHT22;29713;-33.888;151.150;2023-03-01T07:27:03;27.30;99.90
44047;DHT22;29713;-33.888;151.150;2023-03-01T07:29:30;27.20;99.90
44047;DHT22;29713;-33.888;151.150;2023-03-01T07:31:58;27.20;99.90
44047;DHT22;29713;-33.888;151.150;2023-03-01T07:34:25;27.10;99.90
44047;DHT22;29713;-33.888;151.150;2023-03-01T07:36:52;26.80;99.90
44047;DHT22;29713;-33.888;151.150;2023-03-01T07:39:20;26.70;99.90
44047;DHT22;29713;-33.888;151.150;2023-03-01T07:41:50;26.50;99.90
44047;DHT22;29713;-33.888;151.150;2023-03-01T07:44:17;26.40;99.90
44047;DHT22;29713;-33.888;151.150;2023-03-01T07:46:45;26.30;99.90
44047;DHT22;29713;-33.888;151.150;2023-03-01T07:49:12;26.30;99.90
44047;DHT22;29713;-33.888;151.150;2023-03-01T07:51:39;26.30;99.90
44047;DHT22;29713;-33.888;151.150;2023-03-01T07:54:07;26.20;99.90
44047;DHT22;29713;-33.888;151.150;2023-03-01T07:56:34;26.10;99.90
44047;DHT22;29713;-33.888;151.150;2023-03-01T07:59:02;26.00;99.90
44047;DHT22;29713;-33.888;151.150;2023-03-01T08:01:29;25.80;99.90
44047;DHT22;29713;-33.888;151.150;2023-03-01T08:03:56;25.80;99.90
44047;DHT22;29713;-33.888;151.150;2023-03-01T08:06:24;25.80;99.90
44047;DHT22;29713;-33.888;151.150;2023-03-01T08:08:51;25.80;99.90
44047;DHT22;29713;-33.888;151.150;2023-03-01T08:11:18;25.60;99.90
44047;DHT22;29713;-33.888;151.150;2023-03-01T08:13:48;25.60;99.90
44047;DHT22;29713;-33.888;151.150;2023-03-01T08:16:16;25.50;99.90
44047;DHT22;29713;-33.888;151.150;2023-03-01T08:18:44;25.50;99.90
44047;DHT22;29713;-33.888;151.150;2023-03-01T08:21:14;25.40;99.90
44047;DHT22;29713;-33.888;151.150;2023-03-01T08:23:42;25.40;99.90
44047;DHT22;29713;-33.888;151.150;2023-03-01T08:26:16;25.30;99.90
44047;DHT22;29713;-33.888;151.150;2023-03-01T08:28:47;25.20;99.90
44047;DHT22;29713;-33.888;151.150;2023-03-01T08:33:49;25.20;99.90
44047;DHT22;29713;-33.888;151.150;2023-03-01T08:36:22;25.20;99.90
44047;DHT22;29713;-33.888;151.150;2023-03-01T08:38:50;25.20;99.90
44047;DHT22;29713;-33.888;151.150;2023-03-01T08:41:18;25.10;99.90
44047;DHT22;29713;-33.888;151.150;2023-03-01T08:43:46;25.00;99.90
44047;DHT22;29713;-33.888;151.150;2023-03-01T08:46:14;24.90;99.90
44047;DHT22;29713;-33.888;151.150;2023-03-01T08:48:43;24.90;99.90
44047;DHT22;29713;-33.888;151.150;2023-03-01T08:51:16;24.80;99.90
44047;DHT22;29713;-33.888;151.150;2023-03-01T08:53:44;24.70;99.90
44047;DHT22;29713;-33.888;151.150;2023-03-01T08:56:12;24.80;99.90
44047;DHT22;29713;-33.888;151.150;2023-03-01T08:58:39;24.70;99.90
44047;DHT22;29713;-33.888;151.150;2023-03-01T09:01:10;24.70;99.90
44047;DHT22;29713;-33.888;151.150;2023-03-01T09:03:38;24.70;99.90
44047;DHT22;29713;-33.888;151.150;2023-03-01T09:06:06;24.70;99.90
44047;DHT22;29713;-33.888;151.150;2023-03-01T09:08:39;24.70;99.90
44047;DHT22;29713;-33.888;151.150;2023-03-01T09:11:08;24.70;99.90
44047;DHT22;29713;-33.888;151.150;2023-03-01T09:13:36;24.60;99.90
44047;DHT22;29713;-33.888;151.150;2023-03-01T09:16:05;24.70;99.90
44047;DHT22;29713;-33.888;151.150;2023-03-01T09:18:33;24.70;99.90
44047;DHT22;29713;-33.888;151.150;2023-03-01T09:21:09;24.70;99.90
44047;DHT22;29713;-33.888;151.150;2023-03-01T09:23:47;24.60;99.90
44047;DHT22;29713;-33.888;151.150;2023-03-01T09:26:20;24.70;99.90
44047;DHT22;29713;-33.888;151.150;2023-03-01T09:28:50;24.70;99.90
44047;DHT22;29713;-33.888;151.150;2023-03-01T09:31:21;24.70;99.90
44047;DHT22;29713;-33.888;151.150;2023-03-01T09:33:53;24.70;99.90
44047;DHT22;29713;-33.888;151.150;2023-03-01T09:36:23;24.70;99.90
44047;DHT22;29713;-33.888;151.150;2023-03-01T09:38:51;24.80;99.90
44047;DHT22;29713;-33.888;151.150;2023-03-01T09:46:48;24.80;99.90
44047;DHT22;29713;-33.888;151.150;2023-03-01T09:54:31;24.70;99.90
44047;DHT22;29713;-33.888;151.150;2023-03-01T09:57:28;24.70;99.90
44047;DHT22;29713;-33.888;151.150;2023-03-01T10:02:59;24.70;99.90
44047;DHT22;29713;-33.888;151.150;2023-03-01T10:05:34;24.70;99.90
44047;DHT22;29713;-33.888;151.150;2023-03-01T10:10:47;24.70;99.90
44047;DHT22;29713;-33.888;151.150;2023-03-01T10:17:30;24.70;99.90
44047;DHT22;29713;-33.888;151.150;2023-03-01T10:19:42;24.70;99.90
44047;DHT22;29713;-33.888;151.150;2023-03-01T10:22:27;24.70;99.90
44047;DHT22;29713;-33.888;151.150;2023-03-01T10:24:59;24.60;99.90
44047;DHT22;29713;-33.888;151.150;2023-03-01T10:27:55;24.60;99.90
44047;DHT22;29713;-33.888;151.150;2023-03-01T10:30:39;24.50;99.90
44047;DHT22;29713;-33.888;151.150;2023-03-01T10:33:35;24.40;99.90
44047;DHT22;29713;-33.888;151.150;2023-03-01T10:36:08;24.40;99.90
44047;DHT22;29713;-33.888;151.150;2023-03-01T10:38:55;24.30;99.90
44047;DHT22;29713;-33.888;151.150;2023-03-01T10:41:25;24.40;99.90
44047;DHT22;29713;-33.888;151.150;2023-03-01T10:43:58;24.40;99.90
44047;DHT22;29713;-33.888;151.150;2023-03-01T10:46:33;24.40;99.90
44047;DHT22;29713;-33.888;151.150;2023-03-01T10:49:12;24.30;99.90
44047;DHT22;29713;-33.888;151.150;2023-03-01T10:51:45;24.30;99.90
44047;DHT22;29713;-33.888;151.150;2023-03-01T10:54:30;24.30;99.90
44047;DHT22;29713;-33.888;151.150;2023-03-01T10:57:01;24.30;99.90
44047;DHT22;29713;-33.888;151.150;2023-03-01T10:59:31;24.30;99.90
44047;DHT22;29713;-33.888;151.150;2023-03-01T11:02:23;24.30;99.90
44047;DHT22;29713;-33.888;151.150;2023-03-01T11:07:55;24.20;99.90
44047;DHT22;29713;-33.888;151.150;2023-03-01T11:10:29;24.10;99.90
44047;DHT22;29713;-33.888;151.150;2023-03-01T11:13:15;24.00;99.90
44047;DHT22;29713;-33.888;151.150;2023-03-01T11:15:43;24.00;99.90
44047;DHT22;29713;-33.888;151.150;2023-03-01T11:18:25;23.90;99.90
44047;DHT22;29713;-33.888;151.150;2023-03-01T11:20:54;23.90;99.90
44047;DHT22;29713;-33.888;151.150;2023-03-01T11:23:26;23.80;99.90
44047;DHT22;29713;-33.888;151.150;2023-03-01T11:26:05;23.80;99.90
44047;DHT22;29713;-33.888;151.150;2023-03-01T11:28:37;23.80;99.90
44047;DHT22;29713;-33.888;151.150;2023-03-01T11:31:10;23.70;99.90
44047;DHT22;29713;-33.888;151.150;2023-03-01T11:33:54;23.70;99.90
44047;DHT22;29713;-33.888;151.150;2023-03-01T11:36:35;23.60;99.90
44047;DHT22;29713;-33.888;151.150;2023-03-01T11:42:22;23.60;99.90
44047;DHT22;29713;-33.888;151.150;2023-03-01T11:44:55;23.70;99.90
44047;DHT22;29713;-33.888;151.150;2023-03-01T11:50:14;23.70;99.90
44047;DHT22;29713;-33.888;151.150;2023-03-01T11:55:43;23.60;99.90
44047;DHT22;29713;-33.888;151.150;2023-03-01T12:09:32;23.70;99.90
44047;DHT22;29713;-33.888;151.150;2023-03-01T12:19:51;23.70;99.90
44047;DHT22;29713;-33.888;151.150;2023-03-01T12:22:31;23.60;99.90
44047;DHT22;29713;-33.888;151.150;2023-03-01T12:33:45;23.70;99.90
44047;DHT22;29713;-33.888;151.150;2023-03-01T12:47:09;23.80;99.90
44047;DHT22;29713;-33.888;151.150;2023-03-01T12:49:46;23.80;99.90
44047;DHT22;29713;-33.888;151.150;2023-03-01T12:55:19;23.70;99.90
44047;DHT22;29713;-33.888;151.150;2023-03-01T13:06:15;23.70;99.90
44047;DHT22;29713;-33.888;151.150;2023-03-01T13:08:44;23.70;99.90
44047;DHT22;29713;-33.888;151.150;2023-03-01T13:11:22;23.60;99.90
44047;DHT22;29713;-33.888;151.150;2023-03-01T13:13:50;23.70;99.90
44047;DHT22;29713;-33.888;151.150;2023-03-01T13:16:40;23.70;99.90
44047;DHT22;29713;-33.888;151.150;2023-03-01T13:19:15;23.60;99.90
44047;DHT22;29713;-33.888;151.150;2023-03-01T13:21:45;23.70;99.90
44047;DHT22;29713;-33.888;151.150;2023-03-01T13:35:50;23.70;99.90
44047;DHT22;29713;-33.888;151.150;2023-03-01T13:38:45;23.70;99.90
44047;DHT22;29713;-33.888;151.150;2023-03-01T13:41:17;23.70;99.90
44047;DHT22;29713;-33.888;151.150;2023-03-01T13:43:48;23.70;99.90
44047;DHT22;29713;-33.888;151.150;2023-03-01T13:46:21;23.70;99.90
44047;DHT22;29713;-33.888;151.150;2023-03-01T13:48:56;23.70;99.90
44047;DHT22;29713;-33.888;151.150;2023-03-01T13:51:28;23.70;99.90
44047;DHT22;29713;-33.888;151.150;2023-03-01T13:53:56;23.70;99.90
44047;DHT22;29713;-33.888;151.150;2023-03-01T13:56:33;23.70;99.90
44047;DHT22;29713;-33.888;151.150;2023-03-01T13:59:14;23.60;99.90
44047;DHT22;29713;-33.888;151.150;2023-03-01T14:01:42;23.60;99.90
44047;DHT22;29713;-33.888;151.150;2023-03-01T14:04:28;23.60;99.90
44047;DHT22;29713;-33.888;151.150;2023-03-01T14:07:20;23.70;99.90
44047;DHT22;29713;-33.888;151.150;2023-03-01T14:09:52;23.60;99.90
44047;DHT22;29713;-33.888;151.150;2023-03-01T14:20:30;23.60;99.90
44047;DHT22;29713;-33.888;151.150;2023-03-01T14:23:02;23.60;99.90
44047;DHT22;29713;-33.888;151.150;2023-03-01T14:25:37;23.50;99.90
44047;DHT22;29713;-33.888;151.150;2023-03-01T14:28:21;23.50;99.90
44047;DHT22;29713;-33.888;151.150;2023-03-01T14:30:56;23.40;99.90
44047;DHT22;29713;-33.888;151.150;2023-03-01T14:33:30;23.40;99.90
44047;DHT22;29713;-33.888;151.150;2023-03-01T14:36:05;23.40;99.90
44047;DHT22;29713;-33.888;151.150;2023-03-01T14:38:43;23.30;99.90
44047;DHT22;29713;-33.888;151.150;2023-03-01T14:41:19;23.40;99.90
44047;DHT22;29713;-33.888;151.150;2023-03-01T14:43:52;23.30;99.90
44047;DHT22;29713;-33.888;151.150;2023-03-01T14:49:09;23.30;99.90
44047;DHT22;29713;-33.888;151.150;2023-03-01T14:51:40;23.40;99.90
44047;DHT22;29713;-33.888;151.150;2023-03-01T14:54:27;23.30;99.90
44047;DHT22;29713;-33.888;151.150;2023-03-01T14:56:59;23.30;99.90
44047;DHT22;29713;-33.888;151.150;2023-03-01T14:59:28;23.30;99.90
44047;DHT22;29713;-33.888;151.150;2023-03-01T15:01:57;23.30;99.90
44047;DHT22;29713;-33.888;151.150;2023-03-01T15:04:28;23.20;99.90
44047;DHT22;29713;-33.888;151.150;2023-03-01T15:06:57;23.20;99.90
44047;DHT22;29713;-33.888;151.150;2023-03-01T15:09:33;23.20;99.90
44047;DHT22;29713;-33.888;151.150;2023-03-01T15:12:23;23.20;99.90
44047;DHT22;29713;-33.888;151.150;2023-03-01T15:14:48;23.10;99.90
44047;DHT22;29713;-33.888;151.150;2023-03-01T15:17:34;23.10;99.90
44047;DHT22;29713;-33.888;151.150;2023-03-01T15:20:06;23.00;99.90
44047;DHT22;29713;-33.888;151.150;2023-03-01T15:22:34;22.90;99.90
44047;DHT22;29713;-33.888;151.150;2023-03-01T15:25:02;22.90;99.90
44047;DHT22;29713;-33.888;151.150;2023-03-01T15:27:29;22.80;99.90
44047;DHT22;29713;-33.888;151.150;2023-03-01T15:29:59;22.80;99.90
44047;DHT22;29713;-33.888;151.150;2023-03-01T15:32:35;22.70;99.90
44047;DHT22;29713;-33.888;151.150;2023-03-01T15:35:40;22.60;99.90
44047;DHT22;29713;-33.888;151.150;2023-03-01T15:41:04;22.60;99.90
44047;DHT22;29713;-33.888;151.150;2023-03-01T15:43:46;22.60;99.90
44047;DHT22;29713;-33.888;151.150;2023-03-01T15:46:26;22.60;99.90
44047;DHT22;29713;-33.888;151.150;2023-03-01T15:48:59;22.50;99.90
44047;DHT22;29713;-33.888;151.150;2023-03-01T15:51:32;22.50;99.90
44047;DHT22;29713;-33.888;151.150;2023-03-01T15:56:58;22.40;99.90
44047;DHT22;29713;-33.888;151.150;2023-03-01T15:59:25;22.40;99.90
44047;DHT22;29713;-33.888;151.150;2023-03-01T16:01:53;22.40;99.90
44047;DHT22;29713;-33.888;151.150;2023-03-01T16:04:20;22.40;99.90
44047;DHT22;29713;-33.888;151.150;2023-03-01T16:06:53;22.30;99.90
44047;DHT22;29713;-33.888;151.150;2023-03-01T16:09:25;22.20;99.90
44047;DHT22;29713;-33.888;151.150;2023-03-01T16:11:53;22.10;99.90
44047;DHT22;29713;-33.888;151.150;2023-03-01T16:14:21;22.10;99.90
44047;DHT22;29713;-33.888;151.150;2023-03-01T16:16:48;22.00;99.90
44047;DHT22;29713;-33.888;151.150;2023-03-01T16:19:16;22.00;99.90
44047;DHT22;29713;-33.888;151.150;2023-03-01T16:21:44;22.00;99.90
44047;DHT22;29713;-33.888;151.150;2023-03-01T16:24:14;22.00;99.90
44047;DHT22;29713;-33.888;151.150;2023-03-01T16:26:41;22.00;99.90
44047;DHT22;29713;-33.888;151.150;2023-03-01T16:29:08;22.00;99.90
44047;DHT22;29713;-33.888;151.150;2023-03-01T16:31:36;22.10;99.90
44047;DHT22;29713;-33.888;151.150;2023-03-01T16:34:03;22.10;99.90
44047;DHT22;29713;-33.888;151.150;2023-03-01T16:36:30;22.10;99.90
44047;DHT22;29713;-33.888;151.150;2023-03-01T16:38:59;22.00;99.90
44047;DHT22;29713;-33.888;151.150;2023-03-01T16:41:28;22.10;99.90
44047;DHT22;29713;-33.888;151.150;2023-03-01T16:43:55;22.10;99.90
44047;DHT22;29713;-33.888;151.150;2023-03-01T16:46:26;22.10;99.90
44047;DHT22;29713;-33.888;151.150;2023-03-01T16:48:55;22.10;99.90
44047;DHT22;29713;-33.888;151.150;2023-03-01T16:51:23;22.10;99.90
44047;DHT22;29713;-33.888;151.150;2023-03-01T16:53:52;22.10;99.90
44047;DHT22;29713;-33.888;151.150;2023-03-01T16:56:19;22.00;99.90
44047;DHT22;29713;-33.888;151.150;2023-03-01T16:58:47;21.90;99.90
44047;DHT22;29713;-33.888;151.150;2023-03-01T17:01:19;21.90;99.90
44047;DHT22;29713;-33.888;151.150;2023-03-01T17:03:50;21.90;99.90
44047;DHT22;29713;-33.888;151.150;2023-03-01T17:06:19;21.90;99.90
44047;DHT22;29713;-33.888;151.150;2023-03-01T17:08:48;21.80;99.90
44047;DHT22;29713;-33.888;151.150;2023-03-01T17:11:18;21.80;99.90
44047;DHT22;29713;-33.888;151.150;2023-03-01T17:13:46;21.80;99.90
44047;DHT22;29713;-33.888;151.150;2023-03-01T17:16:16;21.80;99.90
44047;DHT22;29713;-33.888;151.150;2023-03-01T17:18:44;21.70;99.90
44047;DHT22;29713;-33.888;151.150;2023-03-01T17:21:14;21.70;99.90
44047;DHT22;29713;-33.888;151.150;2023-03-01T17:23:44;21.70;99.90
44047;DHT22;29713;-33.888;151.150;2023-03-01T17:26:12;21.70;99.90